Time;durP1;ratioP1;P1;durP2;ratioP2;P2;SDS_P1;SDS_P2;PMS_P1;PMS_P2;Temp;Humidity;BMP_temperature;BMP_pressure;BME280_temperature;BME280_humidity;BME280_pressure;Samples;Min_cycle;Max_cycle;Signal;HPM_P1;HPM_P2
2023/11/07 00:02:21;;;;;;;5.73;1.70;;;10.30;99.90;;;;;;5089248;28;20524;-64
2023/11/07 00:04:47;;;;;;;8.80;1.90;;;10.30;99.90;;;;;;5086155;28;20180;-64
2023/11/07 00:07:13;;;;;;;3.80;1.60;;;10.30;99.90;;;;;;5089528;28;20453;-63
2023/11/07 00:09:39;;;;;;;6.47;1.70;;;10.40;99.90;;;;;;5091984;28;20216;-64
2023/11/07 00:12:05;;;;;;;2.40;1.63;;;10.30;99.90;;;;;;5092228;28;20526;-63
2023/11/07 00:14:31;;;;;;;3.10;1.43;;;10.40;99.90;;;;;;5089975;28;20245;-63
2023/11/07 00:16:57;;;;;;;5.80;1.70;;;10.40;99.90;;;;;;5093243;28;21030;-63
2023/11/07 00:19:24;;;;;;;2.00;1.20;;;10.40;99.90;;;;;;5091567;28;20461;-63
2023/11/07 00:21:49;;;;;;;4.10;1.37;;;10.40;99.90;;;;;;5090274;28;20433;-63
2023/11/07 00:24:15;;;;;;;3.37;1.40;;;10.40;99.90;;;;;;5090640;28;20425;-64
2023/11/07 00:26:41;;;;;;;3.80;1.60;;;10.40;99.90;;;;;;5091027;28;20285;-63
2023/11/07 00:29:13;;;;;;;5.27;1.30;;;10.40;99.90;;;;;;5092336;28;20204;-63
2023/11/07 00:31:39;;;;;;;5.23;2.20;;;10.30;99.90;;;;;;5091300;28;20546;-63
2023/11/07 00:34:07;;;;;;;2.50;1.50;;;10.30;99.90;;;;;;5090863;28;20433;-64
2023/11/07 00:36:33;;;;;;;9.70;1.97;;;10.20;99.90;;;;;;5090902;28;20196;-63
2023/11/07 00:39:00;;;;;;;6.90;2.43;;;10.20;99.90;;;;;;5091451;28;20465;-64
2023/11/07 00:41:27;;;;;;;4.03;1.10;;;10.20;99.90;;;;;;5091763;28;20236;-64
2023/11/07 00:43:54;;;;;;;4.90;1.50;;;10.20;99.90;;;;;;5090408;28;20948;-63
2023/11/07 00:46:21;;;;;;;2.50;1.13;;;10.30;99.90;;;;;;5091397;28;20536;-64
2023/11/07 00:48:46;;;;;;;4.23;1.20;;;10.30;99.90;;;;;;5089794;28;20429;-63
2023/11/07 00:51:12;;;;;;;2.80;1.33;;;10.30;99.90;;;;;;5091571;28;20491;-64
2023/11/07 00:53:38;;;;;;;2.43;1.20;;;10.20;99.90;;;;;;5089794;28;20248;-63
2023/11/07 00:56:07;;;;;;;3.30;1.67;;;10.20;99.90;;;;;;5091137;28;20192;-63
2023/11/07 00:58:33;;;;;;;3.30;1.60;;;10.10;99.90;;;;;;5091204;28;20419;-64
2023/11/07 01:01:00;;;;;;;3.90;1.70;;;10.20;99.90;;;;;;5091186;28;20425;-63
2023/11/07 01:03:26;;;;;;;2.07;1.13;;;10.20;99.90;;;;;;5090345;28;20475;-64
2023/11/07 01:05:52;;;;;;;3.33;1.50;;;10.20;99.90;;;;;;5090484;28;20418;-64
2023/11/07 01:08:18;;;;;;;1.40;1.10;;;10.10;99.90;;;;;;5088760;28;20201;-64
2023/11/07 01:10:44;;;;;;;6.33;1.80;;;10.20;99.90;;;;;;5090818;28;20461;-63
2023/11/07 01:13:11;;;;;;;2.63;1.60;;;10.30;99.90;;;;;;5089458;28;20457;-64
2023/11/07 01:15:37;;;;;;;3.60;1.50;;;10.20;99.90;;;;;;5090475;28;20442;-63
2023/11/07 01:18:06;;;;;;;4.20;1.30;;;10.20;99.90;;;;;;5089676;28;20418;-63
2023/11/07 01:20:32;;;;;;;2.10;1.60;;;10.30;99.90;;;;;;5088933;28;20919;-63
2023/11/07 01:22:58;;;;;;;2.40;1.20;;;10.30;99.90;;;;;;5088983;28;20795;-65
2023/11/07 01:25:24;;;;;;;3.80;1.57;;;10.40;99.90;;;;;;5091864;28;20582;-63
2023/11/07 01:27:52;;;;;;;2.70;1.97;;;10.40;99.90;;;;;;5088400;28;20782;-63
2023/11/07 01:30:17;;;;;;;2.67;1.50;;;10.40;99.90;;;;;;5056437;28;20219;-64
2023/11/07 01:32:43;;;;;;;4.00;1.60;;;10.40;99.90;;;;;;5092859;28;20535;-63
2023/11/07 01:35:09;;;;;;;3.93;1.40;;;10.40;99.90;;;;;;5089848;28;20204;-64
2023/11/07 01:37:36;;;;;;;2.67;1.20;;;10.40;99.90;;;;;;5090883;28;20421;-63
2023/11/07 01:40:02;;;;;;;3.77;1.63;;;10.40;99.90;;;;;;5088631;28;20208;-63
2023/11/07 01:42:28;;;;;;;3.73;1.30;;;10.50;99.90;;;;;;5072503;28;20430;-63
2023/11/07 01:44:54;;;;;;;2.87;1.63;;;10.50;99.90;;;;;;5089173;28;20456;-64
2023/11/07 01:47:25;;;;;;;2.50;1.27;;;10.40;99.90;;;;;;5090242;28;20230;-63
2023/11/07 01:49:51;;;;;;;3.40;1.47;;;10.50;99.90;;;;;;5093403;28;20212;-63
2023/11/07 01:52:18;;;;;;;2.10;1.33;;;10.40;99.90;;;;;;5089751;28;20484;-65
2023/11/07 01:54:46;;;;;;;2.03;1.60;;;10.40;99.90;;;;;;5089303;28;20433;-63
2023/11/07 01:57:13;;;;;;;3.10;1.50;;;10.40;99.90;;;;;;5089057;28;21182;-63
2023/11/07 01:59:40;;;;;;;2.07;1.27;;;10.40;99.90;;;;;;5090580;28;20470;-64
2023/11/07 02:02:10;;;;;;;2.47;1.13;;;10.40;99.90;;;;;;5092777;28;20426;-64
2023/11/07 02:04:36;;;;;;;1.87;1.10;;;10.30;99.90;;;;;;5089575;28;20433;-64
2023/11/07 02:07:01;;;;;;;2.73;1.17;;;10.40;99.90;;;;;;5088577;28;20527;-64
2023/11/07 02:09:27;;;;;;;1.50;1.00;;;10.40;99.90;;;;;;5091624;28;20275;-64
2023/11/07 02:11:53;;;;;;;3.13;2.17;;;10.50;99.90;;;;;;5090572;28;20414;-63
2023/11/07 02:14:29;;;;;;;4.07;1.07;;;10.50;99.90;;;;;;5085333;28;20338;-63
2023/11/07 02:16:54;;;;;;;4.80;1.50;;;10.40;99.90;;;;;;5070796;28;20218;-64
2023/11/07 02:19:20;;;;;;;4.03;1.10;;;10.40;99.90;;;;;;5087205;28;20589;-64
2023/11/07 02:21:47;;;;;;;2.07;1.30;;;10.50;99.90;;;;;;5090166;28;20188;-63
2023/11/07 02:24:13;;;;;;;2.60;1.17;;;10.50;99.90;;;;;;5090704;28;20184;-63
2023/11/07 02:26:39;;;;;;;3.20;1.57;;;10.60;99.90;;;;;;5090084;28;20426;-63
2023/11/07 02:29:05;;;;;;;1.60;1.27;;;10.60;99.90;;;;;;5089523;28;21166;-63
2023/11/07 02:31:31;;;;;;;1.30;0.90;;;10.60;99.90;;;;;;5089461;28;20185;-65
2023/11/07 02:33:57;;;;;;;2.73;0.90;;;10.70;99.90;;;;;;5088297;28;20468;-63
2023/11/07 02:36:22;;;;;;;1.90;1.00;;;10.60;99.90;;;;;;5089461;28;20183;-63
2023/11/07 02:38:48;;;;;;;3.67;2.73;;;10.70;99.90;;;;;;5090590;28;20212;-63
2023/11/07 02:41:14;;;;;;;4.77;1.30;;;10.70;99.90;;;;;;5089036;28;20266;-63
2023/11/07 02:43:40;;;;;;;3.20;1.30;;;10.70;99.90;;;;;;5087565;28;20193;-63
2023/11/07 02:46:06;;;;;;;3.83;1.50;;;10.70;99.90;;;;;;5088210;28;20211;-64
2023/11/07 02:48:33;;;;;;;1.13;1.03;;;10.70;99.90;;;;;;5088983;28;20430;-64
2023/11/07 02:50:59;;;;;;;2.63;1.30;;;10.70;99.90;;;;;;5088687;28;20193;-64
2023/11/07 02:53:25;;;;;;;1.80;0.90;;;10.70;99.90;;;;;;5085261;28;20449;-65
2023/11/07 02:55:50;;;;;;;4.03;1.00;;;10.70;99.90;;;;;;5089449;28;21346;-63
2023/11/07 02:58:16;;;;;;;2.87;1.20;;;10.50;99.90;;;;;;5089275;28;20943;-64
2023/11/07 03:00:44;;;;;;;1.57;0.97;;;10.50;99.90;;;;;;5089046;28;20815;-63
2023/11/07 03:03:10;;;;;;;2.67;1.20;;;10.40;99.90;;;;;;5087642;28;20195;-64
2023/11/07 03:05:36;;;;;;;3.60;1.23;;;10.40;99.90;;;;;;5089584;28;20430;-64
2023/11/07 03:08:02;;;;;;;1.47;0.90;;;10.50;99.90;;;;;;5088557;28;20422;-63
2023/11/07 03:10:28;;;;;;;2.83;1.10;;;10.50;99.90;;;;;;5089738;28;20279;-63
2023/11/07 03:12:53;;;;;;;2.67;0.90;;;10.50;99.90;;;;;;5090132;28;20414;-64
2023/11/07 03:15:19;;;;;;;2.17;1.40;;;10.50;99.90;;;;;;5087697;28;20301;-64
2023/11/07 03:17:45;;;;;;;2.73;1.00;;;10.50;99.90;;;;;;5089790;28;20418;-63
2023/11/07 03:20:11;;;;;;;4.53;1.40;;;10.50;99.90;;;;;;5091576;28;20211;-64
2023/11/07 03:22:37;;;;;;;1.30;1.20;;;10.60;99.90;;;;;;5089270;28;20211;-64
2023/11/07 03:25:04;;;;;;;2.50;1.17;;;10.60;99.90;;;;;;5087187;28;20599;-64
2023/11/07 03:27:29;;;;;;;2.03;1.10;;;10.70;99.90;;;;;;5092292;28;21034;-63
2023/11/07 03:29:56;;;;;;;1.10;0.80;;;10.70;99.90;;;;;;5089296;28;20434;-64
2023/11/07 03:32:21;;;;;;;3.83;1.43;;;10.70;99.90;;;;;;5086852;28;20188;-64
2023/11/07 03:34:47;;;;;;;4.07;1.30;;;10.60;99.90;;;;;;5088626;28;20422;-64
2023/11/07 03:37:13;;;;;;;4.13;1.43;;;10.50;99.90;;;;;;5087086;28;20624;-64
2023/11/07 03:39:39;;;;;;;1.03;0.87;;;10.50;99.90;;;;;;5089299;28;20207;-64
2023/11/07 03:42:05;;;;;;;1.00;0.87;;;10.50;99.90;;;;;;5088365;28;20250;-63
2023/11/07 03:44:31;;;;;;;2.10;1.40;;;10.50;99.90;;;;;;5087960;28;20208;-64
2023/11/07 03:46:56;;;;;;;2.53;0.90;;;10.50;99.90;;;;;;5088946;28;21000;-64
2023/11/07 03:49:22;;;;;;;3.50;1.17;;;10.50;99.90;;;;;;5088508;28;20422;-64
2023/11/07 03:51:48;;;;;;;4.07;1.63;;;10.50;99.90;;;;;;5089675;28;20188;-63
2023/11/07 03:54:14;;;;;;;2.27;1.07;;;10.50;99.90;;;;;;5086603;28;20188;-64
2023/11/07 03:56:40;;;;;;;1.63;0.80;;;10.50;99.90;;;;;;5089013;28;20496;-64
2023/11/07 03:59:06;;;;;;;2.07;1.13;;;10.60;99.90;;;;;;5091602;28;21051;-63
2023/11/07 04:01:38;;;;;;;3.50;1.10;;;10.50;99.90;;;;;;5088487;28;20541;-63
2023/11/07 04:04:04;;;;;;;2.97;1.20;;;10.60;99.90;;;;;;5087386;28;20297;-64
2023/11/07 04:06:30;;;;;;;1.40;1.00;;;10.50;99.90;;;;;;5088697;28;20487;-64
2023/11/07 04:08:56;;;;;;;2.50;1.20;;;10.50;99.90;;;;;;5091890;28;20468;-63
2023/11/07 04:11:22;;;;;;;3.63;1.43;;;10.50;99.90;;;;;;5087861;28;20566;-63
2023/11/07 04:13:48;;;;;;;2.27;0.87;;;10.60;99.90;;;;;;5089015;28;20430;-64
2023/11/07 04:16:14;;;;;;;2.83;1.20;;;10.50;99.90;;;;;;5087098;28;20237;-64
2023/11/07 04:18:39;;;;;;;3.73;1.70;;;10.60;99.90;;;;;;5089539;28;20191;-64
2023/11/07 04:21:07;;;;;;;4.27;0.80;;;10.60;99.90;;;;;;5091518;28;20274;-64
2023/11/07 04:23:34;;;;;;;1.27;1.10;;;10.60;99.90;;;;;;5086756;28;20215;-64
2023/11/07 04:25:59;;;;;;;2.33;1.10;;;10.60;99.90;;;;;;5088930;28;20419;-63
2023/11/07 04:28:26;;;;;;;1.20;1.10;;;10.60;99.90;;;;;;5091812;28;20428;-63
2023/11/07 04:30:55;;;;;;;4.40;1.37;;;10.60;99.90;;;;;;5088283;28;20256;-64
2023/11/07 04:33:21;;;;;;;3.20;1.40;;;10.60;99.90;;;;;;5086518;28;20426;-64
2023/11/07 04:35:47;;;;;;;4.23;0.97;;;10.60;99.90;;;;;;5089339;28;20478;-63
2023/11/07 04:38:13;;;;;;;1.43;1.00;;;10.60;99.90;;;;;;5087896;28;20549;-64
2023/11/07 04:40:40;;;;;;;4.83;1.13;;;10.60;99.90;;;;;;5087724;28;20544;-63
2023/11/07 04:43:07;;;;;;;3.60;1.00;;;10.70;99.90;;;;;;5087339;28;20524;-64
2023/11/07 04:45:33;;;;;;;2.30;1.27;;;10.70;99.90;;;;;;5084995;28;20414;-64
2023/11/07 04:47:59;;;;;;;3.00;1.00;;;10.70;99.90;;;;;;5088226;28;20430;-64
2023/11/07 04:50:26;;;;;;;2.53;1.10;;;10.70;99.90;;;;;;5086436;28;20426;-64
2023/11/07 04:52:55;;;;;;;2.07;1.00;;;10.70;99.90;;;;;;5087757;28;20971;-63
2023/11/07 04:55:23;;;;;;;3.00;1.10;;;10.70;99.90;;;;;;5089821;28;20455;-65
2023/11/07 04:57:52;;;;;;;4.50;1.40;;;10.70;99.90;;;;;;5091342;28;21156;-63
2023/11/07 05:00:19;;;;;;;2.30;1.27;;;10.70;99.90;;;;;;5091198;28;20468;-63
2023/11/07 05:02:45;;;;;;;2.43;1.40;;;10.70;99.90;;;;;;5090553;28;20436;-64
2023/11/07 05:05:11;;;;;;;1.43;1.07;;;10.70;99.90;;;;;;5091050;28;20450;-64
2023/11/07 05:07:37;;;;;;;1.90;1.00;;;10.70;99.90;;;;;;5091170;28;20992;-64
2023/11/07 05:10:09;;;;;;;1.07;0.90;;;10.70;99.90;;;;;;5094813;28;20284;-64
2023/11/07 05:12:37;;;;;;;1.87;1.00;;;10.70;99.90;;;;;;5089997;28;20461;-64
2023/11/07 05:15:03;;;;;;;3.60;1.47;;;10.70;99.90;;;;;;5090656;28;20446;-64
2023/11/07 05:17:29;;;;;;;2.17;1.37;;;10.70;99.90;;;;;;5070585;28;20449;-64
2023/11/07 05:19:55;;;;;;;3.43;0.80;;;10.60;99.90;;;;;;5089496;28;20473;-64
2023/11/07 05:22:21;;;;;;;1.37;0.90;;;10.60;99.90;;;;;;5090198;28;20459;-63
2023/11/07 05:24:47;;;;;;;3.30;1.40;;;10.60;99.90;;;;;;5090527;28;20528;-64
2023/11/07 05:27:13;;;;;;;5.33;1.20;;;10.60;99.90;;;;;;5091142;28;20313;-64
2023/11/07 05:29:40;;;;;;;3.57;1.10;;;10.50;99.90;;;;;;5087578;28;20224;-64
2023/11/07 05:32:05;;;;;;;0.93;0.80;;;10.60;99.90;;;;;;5090413;28;20505;-64
2023/11/07 05:34:31;;;;;;;3.13;0.90;;;10.60;99.90;;;;;;5089428;28;20427;-64
2023/11/07 05:36:57;;;;;;;1.83;0.90;;;10.70;99.90;;;;;;5091346;28;20578;-64
2023/11/07 05:39:27;;;;;;;2.27;1.00;;;10.70;99.90;;;;;;5090228;28;20357;-64
2023/11/07 05:41:54;;;;;;;1.50;1.10;;;10.70;99.90;;;;;;5090655;28;20176;-63
2023/11/07 05:44:20;;;;;;;4.33;1.00;;;10.80;99.90;;;;;;5088940;28;21336;-64
2023/11/07 05:46:45;;;;;;;2.60;1.20;;;10.80;99.90;;;;;;5090251;28;20441;-64
2023/11/07 05:49:11;;;;;;;2.63;0.87;;;10.80;99.90;;;;;;5090909;28;20430;-64
2023/11/07 05:51:38;;;;;;;2.17;1.33;;;10.80;99.90;;;;;;5087747;28;20815;-63
2023/11/07 05:54:04;;;;;;;1.87;1.30;;;10.80;99.90;;;;;;5083713;28;20190;-63
2023/11/07 05:56:29;;;;;;;2.37;1.23;;;10.80;99.90;;;;;;5087614;28;20430;-64
2023/11/07 05:58:55;;;;;;;2.70;0.90;;;10.80;99.90;;;;;;5089842;28;21277;-63
2023/11/07 06:01:21;;;;;;;2.00;1.23;;;10.80;99.90;;;;;;5087493;28;20662;-65
2023/11/07 06:03:50;;;;;;;3.43;1.07;;;10.70;99.90;;;;;;5087289;28;20192;-63
2023/11/07 06:06:15;;;;;;;1.20;0.90;;;10.70;99.90;;;;;;5089441;28;20437;-65
2023/11/07 06:08:41;;;;;;;1.90;1.00;;;10.80;99.90;;;;;;5085674;28;21102;-64
2023/11/07 06:11:06;;;;;;;1.97;1.10;;;10.80;99.90;;;;;;5087434;28;20192;-64
2023/11/07 06:13:32;;;;;;;1.20;0.70;;;10.80;99.90;;;;;;5086984;28;20184;-63
2023/11/07 06:15:58;;;;;;;1.60;1.00;;;10.80;99.90;;;;;;5089864;28;20195;-63
2023/11/07 06:18:24;;;;;;;1.03;0.83;;;10.70;99.90;;;;;;5089813;28;20237;-64
2023/11/07 06:20:50;;;;;;;1.50;1.00;;;10.70;99.90;;;;;;5088650;28;20220;-63
2023/11/07 06:23:15;;;;;;;2.50;1.27;;;10.70;99.90;;;;;;5088890;28;20422;-64
2023/11/07 06:25:42;;;;;;;2.30;1.27;;;10.70;99.90;;;;;;5088904;28;20181;-64
2023/11/07 06:28:08;;;;;;;2.70;1.17;;;10.60;99.90;;;;;;5087556;28;20197;-64
2023/11/07 06:30:34;;;;;;;3.47;1.00;;;10.60;99.90;;;;;;5087530;28;21990;-64
2023/11/07 06:33:00;;;;;;;3.40;1.07;;;10.70;99.90;;;;;;5086868;28;20434;-64
2023/11/07 06:35:26;;;;;;;1.70;0.90;;;10.70;99.90;;;;;;5087596;28;21210;-63
2023/11/07 06:37:51;;;;;;;1.90;1.10;;;10.70;99.90;;;;;;5087408;28;20187;-64
2023/11/07 06:40:18;;;;;;;0.80;0.77;;;10.60;99.90;;;;;;5070018;28;20216;-65
2023/11/07 06:42:45;;;;;;;1.90;0.60;;;10.60;99.90;;;;;;5087896;28;20180;-64
2023/11/07 06:45:14;;;;;;;3.00;1.20;;;10.60;99.90;;;;;;5086842;28;20438;-63
2023/11/07 06:47:40;;;;;;;1.00;0.90;;;10.60;99.90;;;;;;5089292;28;20452;-63
2023/11/07 06:50:12;;;;;;;1.83;1.00;;;10.60;99.90;;;;;;5087752;28;20422;-64
2023/11/07 06:52:47;;;;;;;1.83;1.20;;;10.70;99.90;;;;;;5088966;28;20425;-64
2023/11/07 06:55:13;;;;;;;1.73;1.63;;;10.70;99.90;;;;;;5088348;28;20441;-63
2023/11/07 06:57:43;;;;;;;2.50;1.27;;;10.70;99.90;;;;;;5093049;28;20430;-64
2023/11/07 07:00:09;;;;;;;8.70;1.30;;;10.70;99.90;;;;;;5088493;28;20564;-63
2023/11/07 07:02:42;;;;;;;1.37;0.90;;;10.60;99.90;;;;;;5088241;28;20422;-64
2023/11/07 07:05:12;;;;;;;1.83;1.10;;;10.60;99.90;;;;;;5087832;28;20444;-64
2023/11/07 07:07:40;;;;;;;0.90;0.80;;;10.60;99.90;;;;;;5087145;28;20444;-64
2023/11/07 07:10:09;;;;;;;3.00;1.10;;;10.60;99.90;;;;;;5087938;28;20510;-63
2023/11/07 07:12:35;;;;;;;1.47;1.20;;;10.60;99.90;;;;;;5087044;28;20783;-63
2023/11/07 07:15:01;;;;;;;1.10;0.90;;;10.50;99.90;;;;;;5086757;28;20438;-63
2023/11/07 07:17:27;;;;;;;1.10;0.80;;;10.60;99.90;;;;;;5085451;28;21279;-64
2023/11/07 07:19:53;;;;;;;1.60;1.00;;;10.60;99.90;;;;;;5087633;28;20462;-63
2023/11/07 07:22:27;;;;;;;1.00;0.70;;;10.60;99.90;;;;;;5088915;28;20695;-64
2023/11/07 07:24:54;;;;;;;0.80;0.73;;;10.60;99.90;;;;;;5083761;28;20456;-63
2023/11/07 07:27:24;;;;;;;0.93;0.87;;;10.60;99.90;;;;;;5086658;28;20545;-64
2023/11/07 07:29:50;;;;;;;1.30;0.97;;;10.60;99.90;;;;;;5085680;28;20507;-64
2023/11/07 07:32:16;;;;;;;1.50;0.90;;;10.60;99.90;;;;;;5083540;28;20440;-63
2023/11/07 07:34:42;;;;;;;1.73;0.87;;;10.70;99.90;;;;;;5086575;28;20426;-63
2023/11/07 07:37:09;;;;;;;1.33;0.80;;;10.60;99.90;;;;;;5086676;28;20180;-64
2023/11/07 07:39:36;;;;;;;1.13;0.70;;;10.60;99.90;;;;;;5087937;28;20509;-64
2023/11/07 07:42:12;;;;;;;1.77;0.60;;;10.70;99.90;;;;;;5084956;28;20437;-62
2023/11/07 07:44:40;;;;;;;0.70;0.60;;;10.70;99.90;;;;;;5086207;28;20507;-63
2023/11/07 07:47:07;;;;;;;1.57;0.90;;;10.70;99.90;;;;;;5088047;28;20445;-62
2023/11/07 07:49:33;;;;;;;0.83;0.83;;;10.80;99.90;;;;;;5073968;28;20434;-63
2023/11/07 07:52:01;;;;;;;1.50;0.77;;;11.00;99.90;;;;;;5091574;28;20423;-64
2023/11/07 07:54:28;;;;;;;0.93;0.80;;;11.20;99.90;;;;;;5070993;28;20191;-63
2023/11/07 07:56:55;;;;;;;2.33;0.80;;;11.30;99.90;;;;;;5093602;28;20430;-64
2023/11/07 07:59:23;;;;;;;1.40;0.90;;;11.50;99.90;;;;;;5089882;28;21729;-65
2023/11/07 08:01:57;;;;;;;2.23;0.87;;;11.80;99.90;;;;;;5089319;28;20919;-63
2023/11/07 08:04:28;;;;;;;1.23;0.83;;;12.20;99.90;;;;;;5087700;28;20456;-62
2023/11/07 08:06:54;;;;;;;2.13;0.80;;;12.40;99.90;;;;;;5088425;28;20433;-64
2023/11/07 08:09:22;;;;;;;0.90;0.70;;;12.50;99.90;;;;;;5092435;28;20452;-65
2023/11/07 08:11:50;;;;;;;0.90;0.80;;;12.50;99.90;;;;;;5088713;28;20437;-62
2023/11/07 08:14:16;;;;;;;1.27;0.60;;;12.50;99.90;;;;;;5085212;28;20539;-64
2023/11/07 08:16:43;;;;;;;0.97;0.60;;;12.40;99.90;;;;;;5088150;28;20454;-62
2023/11/07 08:19:10;;;;;;;0.80;0.70;;;12.20;99.90;;;;;;5089320;28;20469;-63
2023/11/07 08:21:37;;;;;;;3.20;1.07;;;12.10;99.90;;;;;;5088480;28;20437;-64
2023/11/07 08:24:04;;;;;;;0.73;0.57;;;11.90;99.90;;;;;;5087234;28;20430;-63
2023/11/07 08:26:30;;;;;;;1.00;0.80;;;11.90;99.90;;;;;;5089105;28;20525;-63
2023/11/07 08:28:56;;;;;;;1.50;1.00;;;11.80;99.90;;;;;;5091229;28;20831;-63
2023/11/07 08:31:21;;;;;;;1.40;0.90;;;11.60;99.90;;;;;;5089001;28;20196;-64
2023/11/07 08:33:49;;;;;;;3.30;0.90;;;11.50;99.90;;;;;;5091013;28;20184;-62
2023/11/07 08:36:17;;;;;;;2.60;0.80;;;11.40;99.90;;;;;;5089049;28;20216;-63
2023/11/07 08:38:45;;;;;;;2.97;0.80;;;11.40;99.90;;;;;;5091345;28;20422;-65
2023/11/07 08:41:11;;;;;;;1.93;0.70;;;11.50;99.90;;;;;;5092483;28;20434;-62
2023/11/07 08:43:37;;;;;;;2.10;0.90;;;11.40;99.90;;;;;;5094116;28;20428;-63
2023/11/07 08:46:03;;;;;;;1.33;0.70;;;11.30;99.90;;;;;;5092222;28;21127;-65
2023/11/07 08:48:28;;;;;;;1.57;1.17;;;11.20;99.90;;;;;;5092054;28;20183;-65
2023/11/07 08:50:54;;;;;;;1.33;0.83;;;11.30;99.90;;;;;;5092274;28;20184;-65
2023/11/07 08:53:21;;;;;;;1.90;0.90;;;11.30;99.90;;;;;;5094336;28;20671;-65
2023/11/07 08:55:50;;;;;;;2.80;0.80;;;11.30;99.90;;;;;;5091444;28;20286;-65
2023/11/07 08:58:16;;;;;;;1.30;0.80;;;11.30;99.90;;;;;;5091566;28;20431;-63
2023/11/07 09:00:44;;;;;;;1.30;1.00;;;11.20;99.90;;;;;;5091768;28;20474;-64
2023/11/07 09:03:10;;;;;;;5.30;1.37;;;11.10;99.90;;;;;;5091311;28;20437;-64
2023/11/07 09:05:35;;;;;;;1.60;1.10;;;11.20;99.90;;;;;;5092581;28;20790;-64
2023/11/07 09:08:04;;;;;;;2.10;0.90;;;11.20;99.90;;;;;;5092252;28;20856;-64
2023/11/07 09:10:33;;;;;;;1.90;1.27;;;11.10;99.90;;;;;;5091716;28;20191;-63
2023/11/07 09:12:59;;;;;;;1.80;0.90;;;11.10;99.90;;;;;;5090850;28;20425;-63
2023/11/07 09:15:25;;;;;;;2.27;0.90;;;11.10;99.90;;;;;;5088696;28;20463;-65
2023/11/07 09:17:52;;;;;;;3.07;1.00;;;11.10;99.90;;;;;;5092104;28;20531;-62
2023/11/07 09:20:18;;;;;;;4.17;1.30;;;11.10;99.90;;;;;;5087898;28;20600;-63
2023/11/07 09:22:45;;;;;;;2.30;1.23;;;11.10;99.90;;;;;;5091328;28;21388;-63
2023/11/07 09:25:11;;;;;;;4.10;1.40;;;11.10;99.90;;;;;;5090725;28;20639;-65
2023/11/07 09:27:38;;;;;;;1.90;1.27;;;11.10;99.90;;;;;;5093662;28;20437;-63
2023/11/07 09:30:09;;;;;;;1.70;1.20;;;11.10;99.90;;;;;;5091069;28;20419;-62
2023/11/07 09:32:39;;;;;;;3.10;1.10;;;11.10;99.90;;;;;;5093238;28;20542;-63
2023/11/07 09:35:08;;;;;;;1.40;1.10;;;11.00;99.90;;;;;;5090281;28;21176;-64
2023/11/07 09:37:39;;;;;;;2.70;1.13;;;11.10;99.90;;;;;;5090109;28;21235;-62
2023/11/07 09:40:10;;;;;;;1.73;1.07;;;11.10;99.90;;;;;;5072948;28;20542;-62
2023/11/07 09:42:44;;;;;;;1.73;0.90;;;11.10;99.90;;;;;;5090147;28;20415;-62
2023/11/07 09:45:14;;;;;;;3.40;1.10;;;11.10;99.90;;;;;;5094173;28;20429;-64
2023/11/07 09:47:40;;;;;;;1.67;1.00;;;11.10;99.90;;;;;;5090588;28;20453;-64
2023/11/07 09:50:07;;;;;;;1.50;0.97;;;11.10;99.90;;;;;;5091039;28;20479;-65
2023/11/07 09:52:35;;;;;;;2.10;1.60;;;11.20;99.90;;;;;;5089312;28;20778;-64
2023/11/07 09:55:06;;;;;;;2.60;1.17;;;11.30;99.90;;;;;;5090884;28;20481;-63
2023/11/07 09:57:35;;;;;;;1.90;1.40;;;11.20;99.90;;;;;;5088327;28;20426;-63
2023/11/07 10:00:03;;;;;;;2.80;1.27;;;11.20;99.90;;;;;;5090877;28;20514;-64
2023/11/07 10:02:30;;;;;;;2.23;1.20;;;11.20;99.90;;;;;;5089658;28;20430;-65
2023/11/07 10:04:57;;;;;;;2.57;1.27;;;11.20;99.90;;;;;;5090004;28;20422;-63
2023/11/07 10:07:23;;;;;;;3.90;2.03;;;11.10;99.90;;;;;;5087024;28;21107;-63
2023/11/07 10:09:50;;;;;;;2.27;2.07;;;11.10;99.90;;;;;;5090626;28;20457;-65
2023/11/07 10:12:16;;;;;;;2.40;2.00;;;11.10;99.90;;;;;;5089923;28;20188;-65
2023/11/07 10:14:42;;;;;;;5.17;1.60;;;11.10;99.90;;;;;;5089801;28;20414;-64
2023/11/07 10:17:20;;;;;;;5.70;1.63;;;11.10;99.90;;;;;;5087459;28;20470;-63
2023/11/07 10:19:46;;;;;;;1.80;1.70;;;11.00;99.90;;;;;;5089850;28;20211;-64
2023/11/07 10:22:12;;;;;;;1.90;1.40;;;10.90;99.90;;;;;;5090438;28;21084;-63
2023/11/07 10:24:44;;;;;;;2.50;1.63;;;10.90;99.90;;;;;;5087933;28;20425;-62
2023/11/07 10:27:11;;;;;;;2.37;1.40;;;11.00;99.90;;;;;;5089918;28;20444;-64
2023/11/07 10:29:51;;;;;;;2.53;1.47;;;11.10;99.90;;;;;;5089147;28;20433;-64
2023/11/07 10:32:17;;;;;;;1.73;1.17;;;11.10;99.90;;;;;;5088005;28;20484;-62
2023/11/07 10:34:43;;;;;;;1.93;1.33;;;11.20;99.90;;;;;;5087611;28;20425;-65
2023/11/07 10:37:10;;;;;;;2.17;1.17;;;11.30;99.90;;;;;;5068867;28;20435;-63
2023/11/07 10:39:36;;;;;;;3.70;1.90;;;11.30;99.90;;;;;;5088848;28;20316;-62
2023/11/07 10:42:18;;;;;;;3.60;1.23;;;11.30;99.90;;;;;;5089832;28;20994;-64
2023/11/07 10:44:45;;;;;;;2.37;1.30;;;11.30;99.90;;;;;;5087889;28;20187;-61
2023/11/07 10:47:11;;;;;;;2.27;1.40;;;11.40;99.90;;;;;;5089681;28;20442;-64
2023/11/07 10:49:38;;;;;;;4.60;1.70;;;11.30;99.90;;;;;;5073799;28;20436;-62
2023/11/07 10:52:05;;;;;;;3.53;1.50;;;11.30;99.90;;;;;;5087815;28;20986;-64
2023/11/07 10:54:31;;;;;;;3.73;1.77;;;11.20;99.90;;;;;;5087432;28;20988;-64
2023/11/07 10:57:04;;;;;;;1.50;1.40;;;11.20;99.90;;;;;;5089436;28;20433;-65
2023/11/07 10:59:32;;;;;;;4.53;1.40;;;11.20;99.90;;;;;;5088962;28;20473;-65
2023/11/07 11:02:01;;;;;;;1.97;1.20;;;11.20;99.90;;;;;;5070738;28;20998;-64
2023/11/07 11:04:33;;;;;;;2.73;1.50;;;11.30;99.90;;;;;;5087712;28;20427;-63
2023/11/07 11:07:04;;;;;;;4.20;1.27;;;11.30;99.90;;;;;;5089650;28;20790;-63
2023/11/07 11:09:33;;;;;;;1.97;1.10;;;11.40;99.90;;;;;;5092183;28;20437;-64
2023/11/07 11:12:06;;;;;;;1.87;1.20;;;11.50;99.90;;;;;;5088502;28;20547;-61
2023/11/07 11:14:32;;;;;;;2.70;1.60;;;11.60;99.90;;;;;;5085071;28;20422;-63
2023/11/07 11:17:17;;;;;;;2.60;1.67;;;11.60;99.90;;;;;;5088720;28;20440;-64
2023/11/07 11:20:09;;;;;;;3.90;1.20;;;11.60;99.90;;;;;;5089129;28;20214;-63
2023/11/07 11:22:41;;;;;;;3.17;1.50;;;11.50;99.90;;;;;;5084850;28;20534;-63
2023/11/07 11:25:32;;;;;;;4.50;1.10;;;11.60;99.90;;;;;;5088228;28;20434;-63
2023/11/07 11:28:04;;;;;;;1.90;1.20;;;11.60;99.90;;;;;;5089354;28;20419;-62
2023/11/07 11:30:37;;;;;;;2.70;1.37;;;11.70;99.90;;;;;;5092297;28;20437;-63
2023/11/07 11:33:12;;;;;;;2.60;1.23;;;11.70;99.90;;;;;;5053825;28;21133;-64
2023/11/07 11:35:40;;;;;;;2.17;1.30;;;11.90;99.90;;;;;;5086993;28;20453;-63
2023/11/07 11:38:13;;;;;;;2.73;1.53;;;11.90;99.90;;;;;;5088197;28;20531;-63
2023/11/07 11:40:59;;;;;;;2.50;1.30;;;11.90;99.90;;;;;;5090842;28;20469;-64
2023/11/07 11:43:32;;;;;;;3.77;1.50;;;12.00;99.90;;;;;;5087754;28;21161;-62
2023/11/07 11:46:07;;;;;;;1.53;1.03;;;12.10;99.90;;;;;;5087779;28;20553;-64
2023/11/07 11:48:51;;;;;;;3.93;1.37;;;12.20;99.90;;;;;;5088910;28;20432;-65
2023/11/07 11:51:32;;;;;;;1.50;1.10;;;12.40;99.90;;;;;;5087666;28;21075;-62
2023/11/07 11:53:59;;;;;;;1.67;1.07;;;12.40;99.90;;;;;;5087722;28;20418;-64
2023/11/07 11:56:25;;;;;;;3.80;1.60;;;12.40;99.90;;;;;;5091057;28;21111;-62
2023/11/07 11:59:11;;;;;;;2.00;1.00;;;12.40;99.90;;;;;;5087887;28;20436;-62
2023/11/07 12:01:53;;;;;;;3.70;1.20;;;12.50;99.90;;;;;;5086114;28;20862;-63
2023/11/07 12:04:41;;;;;;;1.67;1.57;;;12.40;99.90;;;;;;5089878;28;20566;-61
2023/11/07 12:07:09;;;;;;;2.63;1.30;;;12.20;99.90;;;;;;5091567;28;20440;-64
2023/11/07 12:09:47;;;;;;;1.43;1.13;;;12.20;99.90;;;;;;5092153;28;20429;-62
2023/11/07 12:12:14;;;;;;;1.70;1.23;;;12.10;99.90;;;;;;5073915;28;20486;-64
2023/11/07 12:15:02;;;;;;;1.30;1.20;;;12.20;99.90;;;;;;5072803;28;20417;-63
2023/11/07 12:17:41;;;;;;;3.03;1.10;;;12.10;99.90;;;;;;5092134;28;20932;-62
2023/11/07 12:20:11;;;;;;;6.57;1.33;;;12.20;99.90;;;;;;5091341;28;21069;-62
2023/11/07 12:22:41;;;;;;;3.30;1.23;;;12.20;99.90;;;;;;5091602;28;20480;-65
2023/11/07 12:25:11;;;;;;;4.07;1.80;;;12.40;99.90;;;;;;5089669;28;20434;-64
2023/11/07 12:27:38;;;;;;;1.33;1.13;;;12.60;99.90;;;;;;5095119;28;20441;-62
2023/11/07 12:30:10;;;;;;;1.53;1.20;;;12.80;99.90;;;;;;5089745;28;20421;-64
2023/11/07 12:32:36;;;;;;;2.20;1.30;;;13.00;99.90;;;;;;5089918;28;20422;-63
2023/11/07 12:35:01;;;;;;;4.80;3.60;;;13.20;99.90;;;;;;5089813;28;20428;-64
2023/11/07 12:37:27;;;;;;;3.03;1.23;;;13.30;99.90;;;;;;5090387;28;20608;-63
2023/11/07 12:39:54;;;;;;;2.50;1.23;;;13.20;99.90;;;;;;5090385;28;20219;-65
2023/11/07 12:42:20;;;;;;;2.50;1.23;;;13.10;99.90;;;;;;5090475;28;20267;-65
2023/11/07 12:44:49;;;;;;;3.23;2.10;;;12.90;99.90;;;;;;5090328;28;20988;-65
2023/11/07 12:47:15;;;;;;;1.93;1.43;;;12.80;99.90;;;;;;5089259;28;20192;-63
2023/11/07 12:49:43;;;;;;;3.13;1.50;;;12.60;99.90;;;;;;5091396;28;20482;-63
2023/11/07 12:52:12;;;;;;;3.03;1.50;;;12.50;99.90;;;;;;5089240;28;20257;-65